Time;durP1;ratioP1;P1;durP2;ratioP2;P2;SDS_P1;SDS_P2;PMS_P1;PMS_P2;Temp;Humidity;BMP_temperature;BMP_pressure;BME280_temperature;BME280_humidity;BME280_pressure;Samples;Min_cycle;Max_cycle;Signal;HPM_P1;HPM_P2
2024/02/26 00:02:37;;;;;;;7.18;5.20;;;;;;;;;;6298893;28;24426;-84
2024/02/26 00:05:56;;;;;;;8.15;5.60;;;;;;;;;;6305582;28;24493;-84
2024/02/26 00:09:07;;;;;;;8.60;5.30;;;;;;;;;;6305980;28;24601;-84
2024/02/26 00:12:23;;;;;;;6.82;5.30;;;;;;;;;;6294172;28;24689;-84
2024/02/26 00:15:25;;;;;;;8.57;5.70;;;;;;;;;;6318634;28;24503;-84
2024/02/26 00:18:28;;;;;;;7.72;5.53;;;;;;;;;;6297646;28;24419;-84
2024/02/26 00:21:40;;;;;;;7.53;5.50;;;;;;;;;;6294136;28;24673;-83
2024/02/26 00:24:45;;;;;;;7.35;5.20;;;;;;;;;;6318582;28;24431;-84
2024/02/26 00:27:52;;;;;;;7.70;5.40;;;;;;;;;;6301632;28;24840;-84
2024/02/26 00:30:57;;;;;;;39.47;24.08;;;;;;;;;;6301999;28;24431;-83
2024/02/26 00:33:59;;;;;;;117.45;54.20;;;;;;;;;;6323619;28;24509;-84
2024/02/26 00:37:23;;;;;;;18.85;10.63;;;;;;;;;;6294100;28;24465;-83
2024/02/26 00:40:28;;;;;;;43.60;22.57;;;;;;;;;;6295624;28;24403;-84
2024/02/26 00:43:40;;;;;;;50.15;23.30;;;;;;;;;;6296049;28;24418;-84
2024/02/26 00:46:45;;;;;;;23.83;11.50;;;;;;;;;;6294924;28;24433;-85
2024/02/26 00:49:47;;;;;;;35.33;18.50;;;;;;;;;;6292497;28;24420;-84
2024/02/26 00:52:50;;;;;;;4.80;3.00;;;;;;;;;;6299107;28;24430;-85
2024/02/26 00:55:59;;;;;;;3.92;2.70;;;;;;;;;;6300274;28;24434;-84
2024/02/26 00:59:38;;;;;;;3.72;2.58;;;;;;;;;;6317806;28;24517;-83
2024/02/26 01:02:46;;;;;;;4.43;2.20;;;;;;;;;;6319772;28;24498;-84
2024/02/26 01:06:01;;;;;;;4.93;2.65;;;;;;;;;;6325852;28;24419;-84
2024/02/26 01:09:17;;;;;;;3.92;2.42;;;;;;;;;;6324390;28;24566;-84
2024/02/26 01:12:28;;;;;;;3.27;2.30;;;;;;;;;;6309531;28;24495;-86
2024/02/26 01:16:16;;;;;;;4.60;2.47;;;;;;;;;;6321472;28;24445;-84
2024/02/26 01:19:29;;;;;;;4.82;2.47;;;;;;;;;;6319941;28;24442;-83
2024/02/26 01:23:26;;;;;;;5.15;2.40;;;;;;;;;;6315062;28;24422;-84
2024/02/26 01:27:15;;;;;;;3.85;2.53;;;;;;;;;;6313901;28;24490;-83
2024/02/26 01:30:27;;;;;;;3.90;2.28;;;;;;;;;;6319485;28;24434;-83
2024/02/26 01:33:58;;;;;;;;;;;;;;;;;;;;;
2024/02/26 01:37:22;;;;;;;3.65;2.88;;;;;;;;;;6307893;28;24423;-84
2024/02/26 01:44:13;;;;;;;7.63;4.47;;;;;;;;;;6314012;28;24448;-83
2024/02/26 01:54:03;;;;;;;8.75;5.40;;;;;;;;;;6286702;28;24503;-86
2024/02/26 01:57:14;;;;;;;7.50;6.00;;;;;;;;;;6278563;28;24538;-84
2024/02/26 02:00:37;;;;;;;9.23;5.82;;;;;;;;;;6307123;28;24445;-82
2024/02/26 02:07:34;;;;;;;9.85;5.18;;;;;;;;;;6318421;28;24436;-84
2024/02/26 02:10:36;;;;;;;7.20;4.97;;;;;;;;;;6297054;28;24851;-84
2024/02/26 02:13:38;;;;;;;7.90;5.50;;;;;;;;;;6325077;28;25135;-83
2024/02/26 02:16:46;;;;;;;7.00;5.07;;;;;;;;;;6325279;28;24423;-85
2024/02/26 02:20:04;;;;;;;5.63;4.20;;;;;;;;;;6320215;28;25232;-83
2024/02/26 02:23:58;;;;;;;5.97;3.92;;;;;;;;;;6224979;28;24748;-85
2024/02/26 02:27:01;;;;;;;6.68;4.20;;;;;;;;;;6174704;28;24875;-83
2024/02/26 02:30:08;;;;;;;5.63;3.83;;;;;;;;;;6180455;28;25083;-83
2024/02/26 02:36:53;;;;;;;6.22;4.00;;;;;;;;;;6180133;28;24433;-83
2024/02/26 02:40:00;;;;;;;6.55;3.72;;;;;;;;;;6181182;28;24842;-85
2024/02/26 02:43:06;;;;;;;5.13;3.40;;;;;;;;;;6184929;28;24425;-83
2024/02/26 02:46:22;;;;;;;5.30;3.55;;;;;;;;;;6160184;28;24498;-84
2024/02/26 02:49:51;;;;;;;4.60;3.10;;;;;;;;;;6171172;28;24466;-83
2024/02/26 02:52:53;;;;;;;5.40;3.30;;;;;;;;;;6157726;28;24517;-84
2024/02/26 02:56:13;;;;;;;5.32;3.38;;;;;;;;;;6183953;28;24528;-84
2024/02/26 03:02:36;;;;;;;5.10;3.00;;;;;;;;;;6189820;28;24474;-85
2024/02/26 03:05:41;;;;;;;4.90;2.90;;;;;;;;;;6234818;28;24640;-84
2024/02/26 03:08:53;;;;;;;4.75;2.90;;;;;;;;;;6230860;28;24426;-84
2024/02/26 03:12:01;;;;;;;4.03;2.70;;;;;;;;;;6215368;28;24812;-85
2024/02/26 03:15:19;;;;;;;4.35;2.50;;;;;;;;;;6231420;28;24420;-84
2024/02/26 03:18:24;;;;;;;4.03;2.40;;;;;;;;;;6226997;28;24923;-86
2024/02/26 03:21:42;;;;;;;4.32;2.80;;;;;;;;;;6209728;28;24656;-85
2024/02/26 03:25:46;;;;;;;5.23;2.73;;;;;;;;;;6185823;28;24522;-85
2024/02/26 03:28:48;;;;;;;3.75;2.50;;;;;;;;;;6139800;28;25225;-85
2024/02/26 03:31:51;;;;;;;4.10;2.73;;;;;;;;;;6148923;28;24952;-84
2024/02/26 03:34:54;;;;;;;3.47;2.50;;;;;;;;;;6227834;28;24527;-83
2024/02/26 03:38:03;;;;;;;3.93;2.53;;;;;;;;;;6234530;28;24413;-86
2024/02/26 03:41:14;;;;;;;4.63;2.70;;;;;;;;;;6325025;28;24448;-84
2024/02/26 03:44:21;;;;;;;4.35;2.53;;;;;;;;;;6325080;28;24423;-86
2024/02/26 03:47:39;;;;;;;4.18;2.58;;;;;;;;;;6327305;28;24472;-83
2024/02/26 03:50:50;;;;;;;3.65;2.45;;;;;;;;;;6319924;28;24460;-84
2024/02/26 03:54:01;;;;;;;5.07;2.70;;;;;;;;;;6301264;28;24448;-85
2024/02/26 03:57:20;;;;;;;4.50;3.00;;;;;;;;;;6328710;28;24418;-83
2024/02/26 04:00:22;;;;;;;4.18;2.85;;;;;;;;;;6328539;28;24414;-85
2024/02/26 04:03:26;;;;;;;5.07;2.38;;;;;;;;;;6328992;28;24501;-84
2024/02/26 04:06:28;;;;;;;4.63;2.80;;;;;;;;;;6323790;28;25095;-84
2024/02/26 04:09:32;;;;;;;4.97;2.80;;;;;;;;;;6324015;28;24580;-84
2024/02/26 04:12:41;;;;;;;3.97;2.70;;;;;;;;;;6317074;28;24437;-84
2024/02/26 04:15:43;;;;;;;3.50;2.47;;;;;;;;;;6326684;28;24614;-84
2024/02/26 04:18:47;;;;;;;3.53;2.60;;;;;;;;;;6320344;28;24433;-85
2024/02/26 04:22:04;;;;;;;3.47;2.45;;;;;;;;;;6312963;28;24430;-84
2024/02/26 04:25:09;;;;;;;4.28;2.70;;;;;;;;;;6317745;28;24422;-83
2024/02/26 04:28:12;;;;;;;5.38;2.60;;;;;;;;;;6266458;28;24488;-83
2024/02/26 04:34:49;;;;;;;3.92;2.50;;;;;;;;;;6270349;28;24445;-85
2024/02/26 04:37:54;;;;;;;3.95;2.47;;;;;;;;;;6301915;28;24501;-84
2024/02/26 04:41:02;;;;;;;5.05;3.08;;;;;;;;;;6302387;28;24679;-83
2024/02/26 04:44:08;;;;;;;4.97;2.57;;;;;;;;;;6278222;28;24488;-86
2024/02/26 04:47:10;;;;;;;3.63;2.60;;;;;;;;;;6289322;28;24415;-83
2024/02/26 04:50:18;;;;;;;3.78;2.70;;;;;;;;;;6294569;28;24487;-86
2024/02/26 04:53:23;;;;;;;3.70;2.40;;;;;;;;;;6294516;28;24506;-84
2024/02/26 04:56:27;;;;;;;3.13;2.30;;;;;;;;;;6297212;28;24441;-84
2024/02/26 04:59:31;;;;;;;3.47;2.40;;;;;;;;;;6293289;28;24481;-85
2024/02/26 05:02:37;;;;;;;3.63;2.50;;;;;;;;;;6300030;28;24866;-85
2024/02/26 05:05:41;;;;;;;4.15;2.60;;;;;;;;;;6294061;28;24810;-86
2024/02/26 05:08:43;;;;;;;3.23;2.10;;;;;;;;;;6300242;28;24436;-83
2024/02/26 05:11:45;;;;;;;3.53;2.10;;;;;;;;;;6300117;28;24468;-85
2024/02/26 05:15:03;;;;;;;3.47;2.30;;;;;;;;;;6295924;28;24649;-84
2024/02/26 05:18:07;;;;;;;4.40;2.30;;;;;;;;;;6295008;28;24624;-84
2024/02/26 05:21:10;;;;;;;3.63;2.03;;;;;;;;;;6292898;28;24419;-83
2024/02/26 05:24:15;;;;;;;3.42;2.30;;;;;;;;;;6294274;28;24494;-85
2024/02/26 05:27:20;;;;;;;3.40;2.30;;;;;;;;;;6304253;28;24484;-84
2024/02/26 05:30:26;;;;;;;3.45;2.20;;;;;;;;;;6299879;28;24415;-84
2024/02/26 05:33:28;;;;;;;4.20;2.10;;;;;;;;;;6313880;28;24441;-85
2024/02/26 05:36:35;;;;;;;3.90;2.13;;;;;;;;;;6320025;28;24418;-84
2024/02/26 05:39:40;;;;;;;2.83;2.20;;;;;;;;;;6290848;28;24433;-84
2024/02/26 05:42:44;;;;;;;3.77;2.30;;;;;;;;;;6300486;28;24568;-84
2024/02/26 05:45:46;;;;;;;3.70;2.38;;;;;;;;;;6296136;28;24649;-85
2024/02/26 05:48:49;;;;;;;3.78;2.53;;;;;;;;;;6319460;28;24652;-83
2024/02/26 05:51:52;;;;;;;3.67;2.40;;;;;;;;;;6298094;28;24453;-83
2024/02/26 05:55:00;;;;;;;4.70;2.50;;;;;;;;;;6297695;28;24462;-84
2024/02/26 05:58:04;;;;;;;4.63;2.80;;;;;;;;;;6320816;28;24419;-83
2024/02/26 06:01:06;;;;;;;3.45;2.42;;;;;;;;;;6316727;28;24426;-84
2024/02/26 06:04:14;;;;;;;5.00;2.78;;;;;;;;;;6294850;28;24513;-83
2024/02/26 06:07:22;;;;;;;3.80;2.67;;;;;;;;;;6299565;28;24422;-86
2024/02/26 06:10:27;;;;;;;4.90;3.00;;;;;;;;;;6330194;28;24406;-87
2024/02/26 06:13:31;;;;;;;4.90;2.88;;;;;;;;;;6324036;28;24418;-86
2024/02/26 06:16:33;;;;;;;3.78;2.70;;;;;;;;;;6325762;28;24418;-86
2024/02/26 06:19:39;;;;;;;3.80;2.70;;;;;;;;;;6326016;28;24809;-87
2024/02/26 06:22:52;;;;;;;5.15;2.88;;;;;;;;;;6326873;28;24611;-86
2024/02/26 06:25:54;;;;;;;4.25;2.75;;;;;;;;;;6322865;28;24532;-83
2024/02/26 06:28:59;;;;;;;3.85;2.70;;;;;;;;;;6322325;28;24425;-85
2024/02/26 06:32:01;;;;;;;5.32;3.25;;;;;;;;;;6320063;28;24425;-83
2024/02/26 06:35:09;;;;;;;4.55;3.03;;;;;;;;;;6320997;28;24420;-85
2024/02/26 06:38:13;;;;;;;4.43;2.95;;;;;;;;;;6321367;28;24401;-85
2024/02/26 06:41:18;;;;;;;4.00;2.90;;;;;;;;;;6328032;28;24434;-84
2024/02/26 06:44:24;;;;;;;4.18;2.70;;;;;;;;;;6326793;28;24855;-84
2024/02/26 06:47:34;;;;;;;5.05;2.50;;;;;;;;;;6299750;28;24418;-85
2024/02/26 06:50:55;;;;;;;3.67;2.47;;;;;;;;;;6326599;28;24432;-85
2024/02/26 06:54:07;;;;;;;4.30;2.67;;;;;;;;;;6324772;28;24429;-85
2024/02/26 07:00:52;;;;;;;3.83;2.25;;;;;;;;;;6322731;28;24414;-87
2024/02/26 07:03:54;;;;;;;4.70;3.07;;;;;;;;;;6322778;28;24599;-83
2024/02/26 07:06:56;;;;;;;4.47;2.42;;;;;;;;;;6321241;28;24468;-85
2024/02/26 07:10:00;;;;;;;5.43;2.53;;;;;;;;;;6312334;28;24418;-84
2024/02/26 07:13:02;;;;;;;4.70;2.10;;;;;;;;;;6324920;28;25326;-84
2024/02/26 07:16:05;;;;;;;4.20;2.22;;;;;;;;;;6301272;28;24466;-79
2024/02/26 07:19:07;;;;;;;3.65;2.40;;;;;;;;;;6292665;28;24531;-83
2024/02/26 07:22:09;;;;;;;4.20;2.30;;;;;;;;;;6292689;28;24591;-84
2024/02/26 07:25:13;;;;;;;3.35;2.45;;;;;;;;;;6295830;28;24509;-84
2024/02/26 07:28:15;;;;;;;4.10;2.67;;;;;;;;;;6301171;28;24764;-85
2024/02/26 07:31:20;;;;;;;3.65;2.50;;;;;;;;;;6323923;28;24445;-85
2024/02/26 07:34:28;;;;;;;4.75;3.00;;;;;;;;;;6325211;28;24463;-82
2024/02/26 07:37:30;;;;;;;3.75;2.85;;;;;;;;;;6325545;28;24489;-84
2024/02/26 07:40:39;;;;;;;5.97;2.95;;;;;;;;;;6324484;28;24635;-83
2024/02/26 07:43:51;;;;;;;4.00;3.00;;;;;;;;;;6310070;28;24489;-84
2024/02/26 07:46:53;;;;;;;4.75;3.00;;;;;;;;;;6312849;28;24473;-83
2024/02/26 07:49:55;;;;;;;5.27;3.00;;;;;;;;;;6322642;28;24481;-83
2024/02/26 07:53:03;;;;;;;4.07;2.70;;;;;;;;;;6304629;28;24438;-84
2024/02/26 07:56:07;;;;;;;4.05;3.03;;;;;;;;;;6308642;28;24429;-83
2024/02/26 07:59:10;;;;;;;6.63;2.80;;;;;;;;;;6321205;28;24505;-83
2024/02/26 08:02:12;;;;;;;5.75;3.20;;;;;;;;;;6319471;28;24414;-83
2024/02/26 08:05:15;;;;;;;6.28;3.10;;;;;;;;;;6324532;28;24810;-86
2024/02/26 08:08:17;;;;;;;5.85;3.40;;;;;;;;;;6318552;28;24841;-84
2024/02/26 08:11:20;;;;;;;4.28;3.10;;;;;;;;;;6322230;28;24522;-84
2024/02/26 08:14:22;;;;;;;4.28;2.95;;;;;;;;;;6321317;28;24895;-84
2024/02/26 08:17:27;;;;;;;6.70;3.70;;;;;;;;;;6325090;28;24422;-83
2024/02/26 08:20:32;;;;;;;6.50;3.20;;;;;;;;;;6325503;28;24446;-84
2024/02/26 08:23:37;;;;;;;6.75;3.40;;;;;;;;;;6298867;28;24435;-85
2024/02/26 08:26:41;;;;;;;5.10;3.20;;;;;;;;;;6317459;28;24831;-84
2024/02/26 08:29:44;;;;;;;5.30;3.43;;;;;;;;;;6319121;28;24512;-84
2024/02/26 08:32:49;;;;;;;5.37;3.40;;;;;;;;;;6295388;28;24854;-85
2024/02/26 08:35:51;;;;;;;7.00;4.00;;;;;;;;;;6321956;28;24609;-85
2024/02/26 08:38:53;;;;;;;6.60;3.47;;;;;;;;;;6328531;28;24501;-84
2024/02/26 08:41:57;;;;;;;5.75;3.50;;;;;;;;;;6328590;28;24534;-83
2024/02/26 08:45:01;;;;;;;5.10;3.30;;;;;;;;;;6324762;28;24419;-84
2024/02/26 08:48:03;;;;;;;5.57;3.20;;;;;;;;;;6325006;28;24535;-85
2024/02/26 08:51:09;;;;;;;4.72;3.38;;;;;;;;;;6325815;28;24806;-85
2024/02/26 08:54:11;;;;;;;5.10;3.50;;;;;;;;;;6326844;28;24428;-86
2024/02/26 08:57:17;;;;;;;5.93;3.17;;;;;;;;;;6323791;28;24524;-84
2024/02/26 09:00:20;;;;;;;5.10;3.13;;;;;;;;;;6324295;28;24443;-85
2024/02/26 09:03:22;;;;;;;3.88;3.08;;;;;;;;;;6323028;28;24845;-84
2024/02/26 09:06:24;;;;;;;4.95;3.22;;;;;;;;;;6323502;28;24431;-83
2024/02/26 09:09:26;;;;;;;4.82;3.40;;;;;;;;;;6323698;28;24436;-84
2024/02/26 09:12:29;;;;;;;5.07;3.05;;;;;;;;;;6322197;28;24464;-83
2024/02/26 09:15:34;;;;;;;5.93;3.35;;;;;;;;;;6324183;28;24565;-83
2024/02/26 09:18:42;;;;;;;6.20;3.35;;;;;;;;;;6327620;28;24429;-83
2024/02/26 09:21:48;;;;;;;5.30;3.07;;;;;;;;;;6318936;28;24417;-83
2024/02/26 09:24:55;;;;;;;5.82;2.95;;;;;;;;;;6317783;28;24631;-84
2024/02/26 09:27:58;;;;;;;4.40;2.97;;;;;;;;;;6316199;28;24414;-84
2024/02/26 09:31:00;;;;;;;6.35;3.13;;;;;;;;;;6314036;28;24429;-85
2024/02/26 09:34:02;;;;;;;3.67;2.70;;;;;;;;;;6311456;28;24510;-84
2024/02/26 09:37:07;;;;;;;4.70;2.53;;;;;;;;;;6317067;28;24546;-85
2024/02/26 09:40:12;;;;;;;4.33;2.87;;;;;;;;;;6321864;28;24497;-84
2024/02/26 09:43:28;;;;;;;3.57;2.63;;;;;;;;;;6318503;28;24422;-83
2024/02/26 09:46:37;;;;;;;4.13;2.70;;;;;;;;;;6320232;28;24529;-84
2024/02/26 09:49:40;;;;;;;3.65;2.50;;;;;;;;;;6320936;28;24432;-85
2024/02/26 09:52:44;;;;;;;4.70;2.70;;;;;;;;;;6322334;28;24459;-84
2024/02/26 09:59:21;;;;;;;4.63;2.85;;;;;;;;;;6320052;28;24422;-83
2024/02/26 10:02:24;;;;;;;4.00;2.60;;;;;;;;;;6321354;28;24820;-83
2024/02/26 10:05:37;;;;;;;5.45;2.97;;;;;;;;;;6321116;28;24423;-83
2024/02/26 10:08:39;;;;;;;3.55;2.60;;;;;;;;;;6313454;28;24515;-83
2024/02/26 10:11:47;;;;;;;4.07;2.70;;;;;;;;;;6326258;28;24513;-85
2024/02/26 10:14:51;;;;;;;3.72;2.55;;;;;;;;;;6304848;28;24518;-86
2024/02/26 10:18:03;;;;;;;3.97;2.70;;;;;;;;;;6324116;28;24440;-83
2024/02/26 10:21:07;;;;;;;4.22;2.50;;;;;;;;;;6297634;28;24453;-83
2024/02/26 10:24:23;;;;;;;4.65;2.67;;;;;;;;;;6324535;28;24451;-85
2024/02/26 10:30:48;;;;;;;4.47;2.65;;;;;;;;;;6291497;28;24422;-86
2024/02/26 10:34:14;;;;;;;3.70;2.30;;;;;;;;;;6327471;28;24832;-84
2024/02/26 10:37:16;;;;;;;3.22;2.50;;;;;;;;;;6296395;28;24538;-85
2024/02/26 10:40:18;;;;;;;3.70;2.30;;;;;;;;;;6324784;28;24421;-84
2024/02/26 10:43:24;;;;;;;3.80;2.25;;;;;;;;;;6324848;28;25284;-84
2024/02/26 10:46:31;;;;;;;3.33;2.57;;;;;;;;;;6326645;28;24463;-83
2024/02/26 10:49:36;;;;;;;3.23;2.30;;;;;;;;;;6319113;28;24431;-84
2024/02/26 10:52:47;;;;;;;4.70;2.40;;;;;;;;;;6321605;28;24464;-86
2024/02/26 10:55:56;;;;;;;4.20;2.43;;;;;;;;;;6319737;28;24502;-85
2024/02/26 10:58:58;;;;;;;3.92;2.25;;;;;;;;;;6320625;28;24806;-84
2024/02/26 11:02:02;;;;;;;4.13;2.60;;;;;;;;;;6320009;28;24456;-84
2024/02/26 11:05:04;;;;;;;3.97;2.20;;;;;;;;;;6320134;28;24413;-87
2024/02/26 11:08:08;;;;;;;3.95;2.30;;;;;;;;;;6318297;28;24417;-84
2024/02/26 11:11:13;;;;;;;3.40;2.55;;;;;;;;;;6322347;28;24653;-85
2024/02/26 11:14:15;;;;;;;4.88;2.70;;;;;;;;;;6326804;28;24441;-84
2024/02/26 11:17:20;;;;;;;4.47;2.65;;;;;;;;;;6323660;28;24430;-85
2024/02/26 11:20:22;;;;;;;4.38;2.65;;;;;;;;;;6327800;28;24571;-85
2024/02/26 11:23:24;;;;;;;4.28;2.83;;;;;;;;;;6331830;28;24913;-85
2024/02/26 11:26:28;;;;;;;4.80;2.97;;;;;;;;;;6322809;28;24430;-85
2024/02/26 11:29:34;;;;;;;3.78;3.03;;;;;;;;;;6325506;28;24414;-84
2024/02/26 11:32:41;;;;;;;6.43;3.25;;;;;;;;;;6318826;28;24437;-84
2024/02/26 11:35:43;;;;;;;6.97;3.90;;;;;;;;;;6321221;28;24851;-82
2024/02/26 11:38:48;;;;;;;6.13;3.50;;;;;;;;;;6324728;28;24522;-84
2024/02/26 11:41:51;;;;;;;6.00;3.90;;;;;;;;;;6330970;28;24828;-87
2024/02/26 11:44:53;;;;;;;6.50;4.25;;;;;;;;;;6327818;28;24465;-84
2024/02/26 11:48:14;;;;;;;7.65;4.53;;;;;;;;;;6325820;28;24434;-86
2024/02/26 11:51:29;;;;;;;8.35;4.43;;;;;;;;;;6325569;28;24438;-86
2024/02/26 11:54:48;;;;;;;7.68;4.72;;;;;;;;;;6325498;28;24449;-84
2024/02/26 11:57:53;;;;;;;6.73;4.80;;;;;;;;;;6327389;28;24888;-85
2024/02/26 12:01:01;;;;;;;8.70;5.43;;;;;;;;;;6325970;28;24425;-86
2024/02/26 12:04:06;;;;;;;8.40;5.78;;;;;;;;;;6328107;28;24521;-82
2024/02/26 12:07:08;;;;;;;7.97;5.72;;;;;;;;;;6320866;28;24465;-84
2024/02/26 12:10:27;;;;;;;9.48;6.20;;;;;;;;;;6295837;28;24438;-84
2024/02/26 12:13:31;;;;;;;9.88;6.53;;;;;;;;;;6305584;28;24465;-83
2024/02/26 12:16:40;;;;;;;9.52;6.45;;;;;;;;;;6323659;28;24510;-84
2024/02/26 12:19:43;;;;;;;10.88;7.05;;;;;;;;;;6298007;28;24418;-86
2024/02/26 12:22:46;;;;;;;11.77;7.43;;;;;;;;;;6302294;28;24418;-85
2024/02/26 12:25:51;;;;;;;10.25;7.35;;;;;;;;;;6319447;28;24429;-83
2024/02/26 12:28:53;;;;;;;11.90;6.95;;;;;;;;;;6295326;28;24494;-84
2024/02/26 12:31:55;;;;;;;12.13;7.07;;;;;;;;;;6299186;28;24452;-84
2024/02/26 12:35:00;;;;;;;10.27;6.97;;;;;;;;;;6308400;28;24599;-84
2024/02/26 12:38:03;;;;;;;8.37;5.70;;;;;;;;;;6297236;28;24414;-85
2024/02/26 12:41:05;;;;;;;7.40;5.15;;;;;;;;;;6297961;28;24473;-84
2024/02/26 12:44:13;;;;;;;6.78;4.22;;;;;;;;;;6294268;28;24626;-83
2024/02/26 12:47:18;;;;;;;6.88;3.97;;;;;;;;;;6309030;28;24481;-83
2024/02/26 12:50:23;;;;;;;4.90;3.40;;;;;;;;;;6313284;28;24415;-83
2024/02/26 12:53:25;;;;;;;8.27;4.05;;;;;;;;;;6308482;28;24425;-84
2024/02/26 12:56:27;;;;;;;34.07;18.17;;;;;;;;;;6319545;28;24439;-84
2024/02/26 12:59:29;;;;;;;14.13;9.05;;;;;;;;;;6328753;28;24410;-86
2024/02/26 13:02:31;;;;;;;7.25;4.65;;;;;;;;;;6328042;28;24420;-86
2024/02/26 13:05:36;;;;;;;7.03;4.15;;;;;;;;;;6326714;28;24809;-86
2024/02/26 13:08:43;;;;;;;8.80;5.10;;;;;;;;;;6326977;28;24441;-84
2024/02/26 13:11:45;;;;;;;6.27;4.40;;;;;;;;;;6325953;28;24430;-86
2024/02/26 13:14:46;;;;;;;8.35;5.10;;;;;;;;;;6327743;28;24420;-88
2024/02/26 13:17:49;;;;;;;5.35;3.20;;;;;;;;;;6322972;28;24422;-88
2024/02/26 13:20:53;;;;;;;7.30;3.17;;;;;;;;;;6322974;28;24406;-86
2024/02/26 13:23:55;;;;;;;3.40;2.50;;;;;;;;;;6323210;28;24422;-87
2024/02/26 13:26:57;;;;;;;4.70;2.55;;;;;;;;;;6298522;28;24634;-85
2024/02/26 13:30:08;;;;;;;3.67;2.10;;;;;;;;;;6287874;28;24441;-86
2024/02/26 13:33:14;;;;;;;3.70;2.10;;;;;;;;;;6289793;28;24594;-85
2024/02/26 13:36:17;;;;;;;5.22;2.10;;;;;;;;;;6292071;28;24518;-85
2024/02/26 13:39:32;;;;;;;4.15;2.05;;;;;;;;;;6291760;28;25127;-85
2024/02/26 13:42:37;;;;;;;5.15;1.85;;;;;;;;;;6289324;28;24423;-84
2024/02/26 13:45:40;;;;;;;3.97;1.92;;;;;;;;;;6290999;28;24623;-87
2024/02/26 13:48:42;;;;;;;3.70;1.88;;;;;;;;;;6264831;28;24543;-87
2024/02/26 13:51:45;;;;;;;2.87;1.93;;;;;;;;;;6292099;28;24477;-89
2024/02/26 13:54:47;;;;;;;4.65;1.85;;;;;;;;;;6294805;28;24495;-87
2024/02/26 13:57:51;;;;;;;4.53;1.88;;;;;;;;;;6289869;28;24414;-86
2024/02/26 14:00:53;;;;;;;3.03;1.70;;;;;;;;;;6288352;28;24495;-85
2024/02/26 14:03:57;;;;;;;3.13;1.70;;;;;;;;;;6291727;28;24413;-85
2024/02/26 14:07:03;;;;;;;2.63;1.63;;;;;;;;;;6288844;28;24490;-85
2024/02/26 14:10:11;;;;;;;3.88;1.88;;;;;;;;;;6289102;28;24417;-85
2024/02/26 14:13:19;;;;;;;5.38;3.35;;;;;;;;;;6273761;28;24413;-87
2024/02/26 14:16:24;;;;;;;4.90;2.60;;;;;;;;;;6289466;28;24481;-86
2024/02/26 14:19:29;;;;;;;3.43;1.80;;;;;;;;;;6289771;28;24501;-87
2024/02/26 14:22:32;;;;;;;3.50;1.98;;;;;;;;;;6287662;28;24454;-85
2024/02/26 14:25:34;;;;;;;2.47;1.75;;;;;;;;;;6290966;28;24418;-85
2024/02/26 14:28:36;;;;;;;4.00;1.88;;;;;;;;;;6319446;28;24492;-85
2024/02/26 14:31:38;;;;;;;3.03;2.15;;;;;;;;;;6321881;28;24868;-85
2024/02/26 14:34:43;;;;;;;5.13;2.42;;;;;;;;;;6325389;28;24510;-86
2024/02/26 14:37:51;;;;;;;3.85;2.08;;;;;;;;;;6330041;28;24733;-84
2024/02/26 14:40:56;;;;;;;3.95;1.98;;;;;;;;;;6333860;28;24491;-85
2024/02/26 14:43:58;;;;;;;4.60;2.30;;;;;;;;;;6328122;28;24417;-86
2024/02/26 14:47:00;;;;;;;3.50;2.17;;;;;;;;;;6324996;28;24478;-85
2024/02/26 14:50:05;;;;;;;4.18;2.45;;;;;;;;;;6326648;27;24588;-86
2024/02/26 14:53:08;;;;;;;3.50;2.50;;;;;;;;;;6331417;28;24878;-86
2024/02/26 14:56:13;;;;;;;4.78;2.80;;;;;;;;;;6332864;28;24438;-85
2024/02/26 14:59:15;;;;;;;3.92;2.53;;;;;;;;;;6325487;28;24621;-86
2024/02/26 15:02:18;;;;;;;4.30;2.78;;;;;;;;;;6321458;28;24660;-85
2024/02/26 15:05:26;;;;;;;4.63;2.60;;;;;;;;;;6318615;28;24422;-87
2024/02/26 15:08:29;;;;;;;4.68;2.90;;;;;;;;;;6325823;28;24587;-87
2024/02/26 15:11:33;;;;;;;4.82;2.35;;;;;;;;;;6325376;28;24536;-87
2024/02/26 15:14:38;;;;;;;2.97;2.28;;;;;;;;;;6320255;28;24410;-86
2024/02/26 15:17:44;;;;;;;5.15;2.58;;;;;;;;;;6325256;28;24693;-85
2024/02/26 15:20:46;;;;;;;5.20;2.92;;;;;;;;;;6326756;28;24481;-88
2024/02/26 15:23:50;;;;;;;49.83;25.25;;;;;;;;;;6328791;28;24490;-85
2024/02/26 15:26:52;;;;;;;66.03;34.75;;;;;;;;;;6326867;28;24418;-85
2024/02/26 15:30:00;;;;;;;14.70;7.18;;;;;;;;;;6323614;28;24426;-86
2024/02/26 15:33:02;;;;;;;78.10;39.45;;;;;;;;;;6322514;28;24506;-85
2024/02/26 15:36:09;;;;;;;28.87;15.13;;;;;;;;;;6322668;28;24507;-86
2024/02/26 15:39:12;;;;;;;12.20;6.78;;;;;;;;;;6313132;28;24661;-85
2024/02/26 15:42:14;;;;;;;67.07;34.67;;;;;;;;;;6319136;28;24602;-85
2024/02/26 15:45:20;;;;;;;8.20;4.70;;;;;;;;;;6320143;28;24432;-86
2024/02/26 15:48:22;;;;;;;3.17;2.33;;;;;;;;;;6326546;28;24411;-85
2024/02/26 15:51:24;;;;;;;3.38;2.40;;;;;;;;;;6325591;28;24442;-86
2024/02/26 15:54:28;;;;;;;3.47;2.33;;;;;;;;;;6321217;28;24459;-85
2024/02/26 15:57:29;;;;;;;3.55;2.50;;;;;;;;;;6327013;28;24893;-85
2024/02/26 16:00:32;;;;;;;4.50;2.38;;;;;;;;;;6322840;28;24495;-84
2024/02/26 16:03:38;;;;;;;3.88;2.38;;;;;;;;;;6324064;28;24503;-84
2024/02/26 16:06:42;;;;;;;3.22;2.20;;;;;;;;;;6323283;28;24422;-85
2024/02/26 16:09:46;;;;;;;3.47;2.33;;;;;;;;;;6318970;28;24430;-86
2024/02/26 16:12:55;;;;;;;42.30;22.98;;;;;;;;;;6324207;28;24429;-87
2024/02/26 16:16:03;;;;;;;6.60;3.37;;;;;;;;;;6326440;28;24814;-85
2024/02/26 16:19:11;;;;;;;2.88;2.10;;;;;;;;;;6326880;28;24790;-87
2024/02/26 16:22:13;;;;;;;3.28;2.20;;;;;;;;;;6327143;28;24497;-85
2024/02/26 16:25:17;;;;;;;4.17;2.53;;;;;;;;;;6326453;28;24638;-85
2024/02/26 16:28:21;;;;;;;3.55;2.22;;;;;;;;;;6330729;28;24443;-85
2024/02/26 16:31:26;;;;;;;4.75;3.58;;;;;;;;;;6323045;28;24910;-83
2024/02/26 16:34:28;;;;;;;4.65;3.53;;;;;;;;;;6312314;28;24413;-84
2024/02/26 16:37:31;;;;;;;4.60;3.40;;;;;;;;;;6299285;28;24434;-86
2024/02/26 16:40:36;;;;;;;5.35;3.75;;;;;;;;;;6323258;28;26997;-86
2024/02/26 16:43:40;;;;;;;5.68;3.53;;;;;;;;;;6304204;28;24490;-84
2024/02/26 16:46:42;;;;;;;4.90;3.55;;;;;;;;;;6302938;28;24699;-86
2024/02/26 16:49:47;;;;;;;5.80;3.40;;;;;;;;;;6314128;28;24426;-87
2024/02/26 16:52:55;;;;;;;4.40;3.17;;;;;;;;;;6296395;28;24422;-86
2024/02/26 16:56:01;;;;;;;5.60;3.40;;;;;;;;;;6301375;28;24420;-86
2024/02/26 16:59:03;;;;;;;4.78;3.38;;;;;;;;;;6313991;28;24449;-84
2024/02/26 17:02:21;;;;;;;5.18;3.38;;;;;;;;;;6296837;28;24422;-85
2024/02/26 17:05:28;;;;;;;3.75;2.92;;;;;;;;;;6300170;28;24418;-86
2024/02/26 17:08:33;;;;;;;5.10;2.90;;;;;;;;;;6306823;28;24512;-86
2024/02/26 17:11:39;;;;;;;5.03;3.25;;;;;;;;;;6289615;28;24434;-86
2024/02/26 17:14:41;;;;;;;4.33;3.20;;;;;;;;;;6307176;28;24446;-86
2024/02/26 17:17:43;;;;;;;5.10;3.10;;;;;;;;;;6303889;28;24435;-85
2024/02/26 17:20:44;;;;;;;4.05;3.13;;;;;;;;;;6295854;28;24675;-86
2024/02/26 17:23:50;;;;;;;4.28;3.30;;;;;;;;;;6309834;28;24419;-86
2024/02/26 17:27:08;;;;;;;4.78;3.42;;;;;;;;;;6304074;28;24425;-85
2024/02/26 17:30:18;;;;;;;4.50;3.23;;;;;;;;;;6301335;28;24494;-86
2024/02/26 17:33:20;;;;;;;3.75;2.90;;;;;;;;;;6315948;28;24415;-86
2024/02/26 17:36:22;;;;;;;4.20;2.92;;;;;;;;;;6300018;28;24504;-87
2024/02/26 17:39:24;;;;;;;5.03;2.90;;;;;;;;;;6299618;28;24844;-85
2024/02/26 17:42:42;;;;;;;4.60;2.78;;;;;;;;;;6303805;28;24422;-86
2024/02/26 17:45:55;;;;;;;5.00;2.95;;;;;;;;;;6299110;28;24426;-86
2024/02/26 17:49:12;;;;;;;4.43;2.70;;;;;;;;;;6307731;28;24451;-86
2024/02/26 17:52:17;;;;;;;3.80;2.38;;;;;;;;;;6320975;28;24423;-85
2024/02/26 17:55:19;;;;;;;3.15;2.30;;;;;;;;;;6293345;28;24426;-84
2024/02/26 17:58:23;;;;;;;3.25;2.50;;;;;;;;;;6296361;28;24518;-86
2024/02/26 18:01:28;;;;;;;3.40;2.80;;;;;;;;;;6320129;28;24460;-85
2024/02/26 18:04:33;;;;;;;3.63;2.60;;;;;;;;;;6282761;28;24431;-85
2024/02/26 18:07:35;;;;;;;4.00;2.60;;;;;;;;;;6291517;28;24873;-86
2024/02/26 18:10:43;;;;;;;4.20;2.53;;;;;;;;;;6326958;28;24837;-85
2024/02/26 18:13:50;;;;;;;3.80;2.90;;;;;;;;;;6310633;27;24449;-86
2024/02/26 18:16:52;;;;;;;4.35;2.72;;;;;;;;;;6331635;27;24442;-85
2024/02/26 18:19:55;;;;;;;3.95;2.70;;;;;;;;;;6310465;28;24437;-86
2024/02/26 18:22:57;;;;;;;3.70;2.53;;;;;;;;;;6326361;28;24812;-86
2024/02/26 18:25:59;;;;;;;3.70;2.80;;;;;;;;;;6327245;28;24477;-84
2024/02/26 18:29:04;;;;;;;5.63;2.83;;;;;;;;;;6327950;28;24849;-85
2024/02/26 18:32:18;;;;;;;3.33;2.53;;;;;;;;;;6324769;28;24443;-84
2024/02/26 18:35:20;;;;;;;3.42;2.60;;;;;;;;;;6320752;28;24437;-86
2024/02/26 18:38:29;;;;;;;4.20;2.85;;;;;;;;;;6322101;28;24418;-85
2024/02/26 18:41:31;;;;;;;5.45;3.67;;;;;;;;;;6322811;28;24418;-85
2024/02/26 18:44:35;;;;;;;6.28;3.88;;;;;;;;;;6323494;28;24471;-87
2024/02/26 18:47:37;;;;;;;5.13;3.42;;;;;;;;;;6326000;28;24411;-85
2024/02/26 18:50:40;;;;;;;4.53;3.00;;;;;;;;;;6323009;28;24431;-86
2024/02/26 18:53:45;;;;;;;4.47;3.05;;;;;;;;;;6327965;28;24433;-86
2024/02/26 18:56:46;;;;;;;5.68;2.90;;;;;;;;;;6323539;28;24664;-85
2024/02/26 18:59:50;;;;;;;4.00;2.95;;;;;;;;;;6327177;28;24505;-87
2024/02/26 19:02:55;;;;;;;4.47;3.20;;;;;;;;;;6327708;28;24509;-86
2024/02/26 19:05:58;;;;;;;5.40;3.30;;;;;;;;;;6326495;28;24434;-85
2024/02/26 19:09:00;;;;;;;4.40;3.03;;;;;;;;;;6326580;28;24418;-86
2024/02/26 19:12:04;;;;;;;4.50;2.97;;;;;;;;;;6326535;28;24859;-85
2024/02/26 19:15:10;;;;;;;3.67;2.55;;;;;;;;;;6326999;28;24548;-86